Pellston Regional Airport of Emmet County Airport Pellston US
ICAO: KPLN
IATA: PLN
Category: Medium
Scheduled Services: Yes

Elevation: 721 ft
TransAlt. 18000 ft.

Airport Communications:
ASOS:119.025
MINNEAPOLIS CNTR:134.6
LANSING RDO:122.2
CTAF/UNICOM:123

KPLN Zoom In..

If you have problems with the map follow the link
https://www.worldairports.se/pages/airport.php?
ICAO=KPLN

Runways:

(A) RW 05 length 5401 ft width 150 ft
---- / hdg 51

(B) RW 14 length 6513 ft width 150 ft
---- / hdg 141

(C) RW 23 length 5401 ft width 150 ft
---- / hdg 231

(D) RW 32 length 6513 ft width 150 ft
ILS 111.30 / hdg 321

Location; KPLN
Day. 19 / Time. 00.54 Zulu
* Altimeter: 30.11
* Temperature: 09° c. 48.2°f.
* Wind from: 240° Speed 09 kn with Gusts up to 21 kn.
Dewpoint: -01° c.
Visibility: 10 Statute Miles.
Clouds: Clear (automated report).

KPLN 190054Z AUTO 24009G21KT 10SM CLR 09/M01 A3011 RMK AO2 PK WND 23026/0012 SLP202 T00941011


Wind From 240°
Speed 09 kn.

 
 
jpsmedia.com for Web Design worldairports.se 2018   terms of use